createdAt,value
2024-01-28T00:01:03.131Z,2.95
2024-01-28T00:04:06.102Z,3.17
2024-01-28T00:07:08.511Z,3.50
2024-01-28T00:10:10.936Z,3.22
2024-01-28T00:13:13.393Z,3.15
2024-01-28T00:16:16.981Z,3.78
2024-01-28T00:19:19.431Z,4.78
2024-01-28T00:22:22.034Z,4.30
2024-01-28T00:25:24.043Z,3.15
2024-01-28T00:28:26.129Z,3.50
2024-01-28T00:31:28.448Z,3.58
2024-01-28T00:34:31.044Z,4.18
2024-01-28T00:37:33.533Z,6.38
2024-01-28T00:40:35.876Z,7.93
2024-01-28T00:43:38.148Z,7.65
2024-01-28T00:46:40.211Z,7.05
2024-01-28T00:49:42.964Z,6.32
2024-01-28T00:52:45.498Z,6.70
2024-01-28T00:55:47.544Z,5.30
2024-01-28T00:58:49.927Z,5.20
2024-01-28T01:01:53.669Z,5.15
2024-01-28T01:04:55.861Z,4.05
2024-01-28T01:07:58.211Z,4.50
2024-01-28T01:11:04.450Z,4.88
2024-01-28T01:14:06.727Z,4.45
2024-01-28T01:17:09.070Z,5.35
2024-01-28T01:20:12.131Z,4.80
2024-01-28T01:23:14.417Z,3.80
2024-01-28T01:26:16.473Z,3.78
2024-01-28T01:29:19.078Z,3.75
2024-01-28T01:32:21.512Z,3.90
2024-01-28T01:35:24.034Z,3.88
2024-01-28T01:38:26.420Z,3.67
2024-01-28T01:41:28.740Z,3.35
2024-01-28T01:44:31.244Z,2.97
2024-01-28T01:47:33.970Z,3.33
2024-01-28T01:50:36.579Z,2.75
2024-01-28T01:53:40.313Z,2.95
2024-01-28T01:56:42.627Z,2.38
2024-01-28T01:59:46.911Z,2.70
2024-01-28T02:02:49.130Z,3.05
2024-01-28T02:05:51.514Z,3.03
2024-01-28T02:08:54.948Z,3.20
2024-01-28T02:11:57.812Z,3.30
2024-01-28T02:15:07.880Z,3.42
2024-01-28T02:18:10.386Z,3.33
2024-01-28T02:21:12.611Z,3.33
2024-01-28T02:24:15.032Z,3.10
2024-01-28T02:27:17.529Z,3.08
2024-01-28T02:30:20.408Z,3.20
2024-01-28T02:33:22.715Z,3.10
2024-01-28T02:36:26.048Z,3.17
2024-01-28T02:39:28.419Z,3.20
2024-01-28T02:42:30.860Z,3.05
2024-01-28T02:45:33.179Z,2.95
2024-01-28T02:48:35.742Z,2.80
2024-01-28T02:51:37.995Z,2.70
2024-01-28T02:54:41.930Z,2.83
2024-01-28T02:57:44.586Z,3.10
2024-01-28T03:00:47.356Z,2.95
2024-01-28T03:03:49.636Z,2.80
2024-01-28T03:06:52.150Z,2.42
2024-01-28T03:09:54.565Z,2.90
2024-01-28T03:12:56.751Z,2.63
2024-01-28T03:15:59.496Z,2.72
2024-01-28T03:19:02.063Z,2.65
2024-01-28T03:22:04.448Z,2.72
2024-01-28T03:25:07.146Z,2.85
2024-01-28T03:28:09.557Z,3.10
2024-01-28T03:31:11.857Z,2.90
2024-01-28T03:34:14.333Z,3.05
2024-01-28T03:37:16.770Z,2.70
2024-01-28T03:40:19.143Z,2.97
2024-01-28T03:43:21.436Z,2.55
2024-01-28T03:46:23.775Z,2.58
2024-01-28T03:49:26.158Z,3.00
2024-01-28T03:52:28.285Z,2.95
2024-01-28T03:55:30.614Z,3.45
2024-01-28T03:58:33.023Z,3.20
2024-01-28T04:01:36.259Z,2.97
2024-01-28T04:04:38.839Z,2.75
2024-01-28T04:07:41.290Z,2.75
2024-01-28T04:10:43.342Z,2.60
2024-01-28T04:13:45.597Z,2.92
2024-01-28T04:16:47.880Z,2.95
2024-01-28T04:19:50.660Z,2.83
2024-01-28T04:22:53.051Z,2.33
2024-01-28T04:25:55.115Z,2.58
2024-01-28T04:28:57.421Z,2.88
2024-01-28T04:31:59.837Z,3.65
2024-01-28T04:35:02.748Z,2.95
2024-01-28T04:38:05.037Z,3.08
2024-01-28T04:41:07.364Z,3.35
2024-01-28T04:44:09.759Z,3.63
2024-01-28T04:47:12.076Z,3.53
2024-01-28T04:50:14.482Z,3.58
2024-01-28T04:53:16.958Z,3.28
2024-01-28T04:56:19.400Z,3.47
2024-01-28T04:59:21.485Z,3.85
2024-01-28T05:02:23.590Z,3.95
2024-01-28T05:05:25.963Z,4.07
2024-01-28T05:08:28.383Z,4.18
2024-01-28T05:11:33.849Z,3.67
2024-01-28T05:14:36.152Z,3.60
2024-01-28T05:17:38.296Z,2.95
2024-01-28T05:20:40.805Z,2.92
2024-01-28T05:23:42.838Z,4.40
2024-01-28T05:26:45.439Z,4.18
2024-01-28T05:29:47.515Z,3.33
2024-01-28T05:32:50.131Z,3.67
2024-01-28T05:35:52.292Z,5.47
2024-01-28T05:38:55.956Z,3.85
2024-01-28T05:41:58.481Z,3.00
2024-01-28T05:45:00.754Z,2.70
2024-01-28T05:48:03.750Z,3.47
2024-01-28T05:51:06.240Z,3.17
2024-01-28T05:54:09.365Z,3.28
2024-01-28T05:57:11.950Z,3.47
2024-01-28T06:00:16.125Z,3.78
2024-01-28T06:03:18.473Z,3.55
2024-01-28T06:06:20.920Z,3.28
2024-01-28T06:09:23.401Z,3.85
2024-01-28T06:12:25.892Z,4.78
2024-01-28T06:15:28.686Z,4.90
2024-01-28T06:18:31.063Z,5.10
2024-01-28T06:21:33.523Z,4.20
2024-01-28T06:24:36.733Z,4.90
2024-01-28T06:27:38.829Z,5.57
2024-01-28T06:30:41.268Z,7.43
2024-01-28T06:33:44.908Z,7.25
2024-01-28T06:36:47.673Z,6.85
2024-01-28T06:39:52.833Z,6.72
2024-01-28T06:42:55.360Z,6.20
2024-01-28T06:45:57.510Z,6.10
2024-01-28T06:48:59.878Z,6.18
2024-01-28T06:52:02.750Z,5.20
2024-01-28T06:55:06.709Z,4.72
2024-01-28T06:58:08.877Z,5.75
2024-01-28T07:01:12.458Z,5.00
2024-01-28T07:04:15.217Z,4.90
2024-01-28T07:07:17.712Z,4.88
2024-01-28T07:10:20.125Z,8.63
2024-01-28T07:13:22.444Z,4.72
2024-01-28T07:16:24.583Z,7.25
2024-01-28T07:19:26.976Z,5.57
2024-01-28T07:22:31.118Z,3.00
2024-01-28T07:25:33.461Z,3.38
2024-01-28T07:28:36.075Z,3.28
2024-01-28T07:31:39.233Z,3.35
2024-01-28T07:34:42.143Z,3.53
2024-01-28T07:37:44.501Z,3.30
2024-01-28T07:40:46.909Z,3.75
2024-01-28T07:43:49.212Z,4.03
2024-01-28T07:46:53.000Z,5.28
2024-01-28T07:49:55.379Z,5.68
2024-01-28T07:52:57.512Z,8.52
2024-01-28T07:56:01.294Z,9.95
2024-01-28T07:59:04.059Z,11.63
2024-01-28T08:02:06.454Z,17.95
2024-01-28T08:05:09.819Z,16.67
2024-01-28T08:08:14.653Z,15.88
2024-01-28T08:11:18.385Z,13.90
2024-01-28T08:14:20.682Z,11.85
2024-01-28T08:17:23.077Z,10.85
2024-01-28T08:20:25.514Z,9.60
2024-01-28T08:23:27.981Z,6.70
2024-01-28T08:26:30.161Z,7.20
2024-01-28T08:29:32.933Z,9.23
2024-01-28T08:32:35.762Z,10.23
2024-01-28T08:35:41.698Z,9.82
2024-01-28T08:38:45.177Z,14.60
2024-01-28T08:41:47.314Z,9.07
2024-01-28T08:44:49.728Z,13.90
2024-01-28T08:47:51.945Z,6.78
2024-01-28T08:50:54.259Z,7.68
2024-01-28T08:53:56.545Z,6.88
2024-01-28T08:56:58.684Z,6.05
2024-01-28T09:00:01.093Z,7.72
2024-01-28T09:03:03.915Z,6.60
2024-01-28T09:06:07.771Z,6.82
2024-01-28T09:09:10.855Z,10.85
2024-01-28T09:12:13.056Z,13.93
2024-01-28T09:15:16.035Z,8.88
2024-01-28T09:18:18.779Z,6.82
2024-01-28T09:21:21.267Z,6.50
2024-01-28T09:24:23.696Z,7.05
2024-01-28T09:27:26.132Z,6.93
2024-01-28T09:30:28.412Z,7.45
2024-01-28T09:33:30.788Z,6.47
2024-01-28T09:36:33.135Z,5.85
2024-01-28T09:39:35.648Z,6.47
2024-01-28T09:42:52.520Z,6.55
2024-01-28T09:45:55.117Z,6.28
2024-01-28T09:48:59.254Z,5.75
2024-01-28T09:52:01.763Z,6.53
2024-01-28T09:55:05.635Z,6.50
2024-01-28T09:58:08.698Z,6.75
2024-01-28T10:01:12.333Z,6.07
2024-01-28T10:04:17.230Z,6.40
2024-01-28T10:07:19.972Z,5.78
2024-01-28T10:10:22.126Z,6.30
2024-01-28T10:13:24.593Z,6.55
2024-01-28T10:16:31.640Z,5.50
2024-01-28T10:19:37.174Z,5.07
2024-01-28T10:22:40.608Z,4.63
2024-01-28T10:25:43.791Z,3.40
2024-01-28T10:28:46.141Z,3.47
2024-01-28T10:31:48.364Z,3.45
2024-01-28T10:34:51.041Z,3.60
2024-01-28T10:37:57.201Z,4.65
2024-01-28T10:41:01.236Z,2.90
2024-01-28T10:44:08.010Z,2.90
2024-01-28T10:47:13.694Z,2.85
2024-01-28T10:50:16.718Z,3.20
2024-01-28T10:53:19.764Z,3.20
2024-01-28T10:56:22.735Z,3.00
2024-01-28T10:59:24.991Z,3.22
2024-01-28T11:02:31.339Z,2.90
2024-01-28T11:05:38.897Z,3.28
2024-01-28T11:08:41.275Z,3.25
2024-01-28T11:11:44.015Z,3.70
2024-01-28T11:14:47.474Z,3.90
2024-01-28T11:17:51.508Z,3.00
2024-01-28T11:20:53.846Z,3.25
2024-01-28T11:23:56.816Z,3.30
2024-01-28T11:26:59.901Z,2.90
2024-01-28T11:30:03.021Z,3.35
2024-01-28T11:33:13.591Z,4.38
2024-01-28T11:36:26.845Z,2.97
2024-01-28T11:39:29.380Z,3.42
2024-01-28T11:42:31.905Z,3.22
2024-01-28T11:45:36.401Z,4.63
2024-01-28T11:48:38.946Z,3.45
2024-01-28T11:51:41.200Z,6.90
2024-01-28T11:54:46.089Z,2.95
2024-01-28T11:57:50.000Z,3.03
2024-01-28T12:00:53.197Z,2.83
2024-01-28T12:03:56.184Z,2.75
2024-01-28T12:07:00.694Z,3.45
2024-01-28T12:10:06.889Z,2.53
2024-01-28T12:13:13.445Z,2.60
2024-01-28T12:16:22.977Z,2.92
2024-01-28T12:19:25.136Z,2.88
2024-01-28T12:22:27.526Z,2.60
2024-01-28T12:25:29.878Z,3.20
2024-01-28T12:28:32.336Z,3.10
2024-01-28T12:31:35.212Z,3.55
2024-01-28T12:34:40.782Z,3.20
2024-01-28T12:37:43.201Z,2.90
2024-01-28T12:40:45.555Z,2.88
2024-01-28T12:43:53.098Z,4.10
2024-01-28T12:46:56.034Z,3.97
2024-01-28T12:49:58.603Z,3.70
2024-01-28T12:53:01.163Z,3.20
2024-01-28T12:56:03.417Z,3.70
2024-01-28T12:59:05.517Z,2.67
2024-01-28T13:02:09.096Z,2.80
2024-01-28T13:05:15.779Z,2.80
2024-01-28T13:08:18.356Z,3.03
2024-01-28T13:11:20.744Z,2.80
2024-01-28T13:14:22.909Z,4.90
2024-01-28T13:17:27.686Z,2.53
2024-01-28T13:20:30.382Z,3.40
2024-01-28T13:23:32.718Z,2.95
2024-01-28T13:26:35.107Z,2.97
2024-01-28T13:29:40.878Z,3.10
2024-01-28T13:32:44.606Z,2.97
2024-01-28T13:35:46.921Z,3.22
2024-01-28T13:38:49.119Z,2.40
2024-01-28T13:41:51.227Z,2.50
2024-01-28T13:44:53.413Z,2.90
2024-01-28T13:47:56.294Z,2.10
2024-01-28T13:50:58.663Z,3.00
2024-01-28T13:54:01.066Z,2.90
2024-01-28T13:57:04.123Z,2.85
2024-01-28T14:00:09.269Z,3.50
2024-01-28T14:03:13.099Z,3.80
2024-01-28T14:06:15.574Z,2.40
2024-01-28T14:09:18.231Z,3.17
2024-01-28T14:12:20.406Z,2.60
2024-01-28T14:15:22.604Z,2.50
2024-01-28T14:18:24.784Z,3.05
2024-01-28T14:21:29.840Z,2.80
2024-01-28T14:24:32.330Z,3.90
2024-01-28T14:27:34.810Z,2.90
2024-01-28T14:30:37.030Z,2.80
2024-01-28T14:33:40.177Z,3.00
2024-01-28T14:36:42.710Z,3.40
2024-01-28T14:39:46.811Z,4.53
2024-01-28T14:42:49.026Z,4.00
2024-01-28T14:45:51.830Z,3.60
2024-01-28T14:48:54.097Z,4.63
2024-01-28T14:51:56.380Z,4.22
2024-01-28T14:55:00.255Z,5.07
2024-01-28T14:58:02.772Z,5.70
2024-01-28T15:01:05.323Z,4.05
2024-01-28T15:04:07.556Z,5.38
2024-01-28T15:07:09.850Z,11.20
2024-01-28T15:10:13.550Z,6.68
2024-01-28T15:13:16.102Z,6.97
2024-01-28T15:16:18.423Z,5.38
2024-01-28T15:19:21.926Z,4.95
2024-01-28T15:22:27.301Z,5.03
2024-01-28T15:25:29.914Z,4.68
2024-01-28T15:28:38.658Z,4.70
2024-01-28T15:31:42.253Z,4.88
2024-01-28T15:34:45.809Z,4.55
2024-01-28T15:37:48.051Z,4.18
2024-01-28T15:40:50.125Z,4.05
2024-01-28T15:43:52.968Z,3.83
2024-01-28T15:46:55.389Z,3.40
2024-01-28T15:49:58.244Z,2.95
2024-01-28T15:53:00.692Z,3.05
2024-01-28T15:56:03.056Z,7.43
2024-01-28T15:59:05.632Z,2.95
2024-01-28T16:02:07.737Z,2.90
2024-01-28T16:05:11.051Z,3.53
2024-01-28T16:08:13.826Z,3.00
2024-01-28T16:11:18.383Z,3.40
2024-01-28T16:14:20.563Z,6.10
2024-01-28T16:17:25.071Z,8.30
2024-01-28T16:20:27.794Z,7.50
2024-01-28T16:23:30.110Z,5.93
2024-01-28T16:26:32.625Z,10.23
2024-01-28T16:29:35.122Z,14.07
2024-01-28T16:32:37.361Z,10.52
2024-01-28T16:35:40.374Z,7.32
2024-01-28T16:38:42.827Z,6.22
2024-01-28T16:41:45.101Z,6.57
2024-01-28T16:44:47.186Z,5.75
2024-01-28T16:47:49.667Z,5.15
2024-01-28T16:50:52.278Z,4.75
2024-01-28T16:53:54.336Z,6.03
2024-01-28T16:56:56.943Z,5.88
2024-01-28T16:59:59.311Z,6.70
2024-01-28T17:03:01.932Z,8.73
2024-01-28T17:06:04.672Z,8.15
2024-01-28T17:09:07.021Z,9.43
2024-01-28T17:12:09.149Z,12.50
2024-01-28T17:15:12.233Z,13.52
2024-01-28T17:18:14.602Z,14.02
2024-01-28T17:21:19.384Z,13.60
2024-01-28T17:24:23.295Z,8.27
2024-01-28T17:27:25.597Z,18.42
2024-01-28T17:30:28.173Z,14.55
2024-01-28T17:33:30.838Z,15.15
2024-01-28T17:36:36.564Z,6.95
2024-01-28T17:39:39.648Z,9.02
2024-01-28T17:42:43.474Z,12.55
2024-01-28T17:45:46.575Z,7.38
2024-01-28T17:48:49.536Z,3.70
2024-01-28T17:51:52.346Z,5.18
2024-01-28T17:54:55.937Z,6.60
2024-01-28T17:57:58.920Z,6.65
2024-01-28T18:01:03.998Z,8.70
2024-01-28T18:04:07.286Z,7.05
2024-01-28T18:07:10.472Z,9.93
2024-01-28T18:10:13.946Z,12.38
2024-01-28T18:13:17.107Z,21.13
2024-01-28T18:16:21.717Z,12.55
2024-01-28T18:19:25.300Z,15.00
2024-01-28T18:22:28.932Z,12.40
2024-01-28T18:25:33.756Z,4.43
2024-01-28T18:28:37.604Z,8.30
2024-01-28T18:31:43.632Z,9.35
2024-01-28T18:34:48.160Z,8.93
2024-01-28T18:37:51.466Z,6.63
2024-01-28T18:40:56.350Z,10.80
2024-01-28T18:44:02.839Z,13.85
2024-01-28T18:47:07.311Z,11.60
2024-01-28T18:50:11.392Z,9.40
2024-01-28T18:53:14.797Z,5.45
2024-01-28T18:56:19.538Z,4.40
2024-01-28T18:59:22.683Z,3.63
2024-01-28T19:02:26.435Z,4.93
2024-01-28T19:05:30.485Z,6.00
2024-01-28T19:08:33.952Z,4.53
2024-01-28T19:11:39.803Z,3.65
2024-01-28T19:14:43.577Z,6.25
2024-01-28T19:17:47.226Z,6.00
2024-01-28T19:20:52.438Z,5.47
2024-01-28T19:23:56.079Z,4.70
2024-01-28T19:26:59.786Z,5.55
2024-01-28T19:30:02.925Z,7.28
2024-01-28T19:33:07.681Z,7.22
2024-01-28T19:36:11.258Z,3.85
2024-01-28T19:39:16.407Z,4.20
2024-01-28T19:42:20.278Z,5.65
2024-01-28T19:45:24.929Z,5.63
2024-01-28T19:48:28.802Z,5.22
2024-01-28T19:51:32.418Z,6.57
2024-01-28T19:54:35.736Z,6.90
2024-01-28T19:57:39.229Z,6.85
2024-01-28T20:00:44.069Z,6.30
2024-01-28T20:03:47.405Z,6.03
2024-01-28T20:06:51.175Z,4.88
2024-01-28T20:10:01.060Z,5.63
2024-01-28T20:13:06.157Z,5.80
2024-01-28T20:16:09.624Z,6.72
2024-01-28T20:19:14.324Z,7.03
2024-01-28T20:22:17.824Z,6.80
2024-01-28T20:25:21.238Z,7.20
2024-01-28T20:28:24.949Z,7.50
2024-01-28T20:31:28.466Z,8.45
2024-01-28T20:34:32.068Z,7.82
2024-01-28T20:37:35.736Z,9.63
2024-01-28T20:40:40.541Z,6.78
2024-01-28T20:43:43.818Z,8.20
2024-01-28T20:46:46.748Z,10.35
2024-01-28T20:49:50.738Z,7.95
2024-01-28T20:52:54.287Z,8.68
2024-01-28T20:55:57.406Z,8.23
2024-01-28T20:59:00.620Z,9.25
2024-01-28T21:02:06.500Z,10.73
2024-01-28T21:05:09.703Z,8.50
2024-01-28T21:08:13.084Z,7.32
2024-01-28T21:11:16.670Z,21.48
2024-01-28T21:14:19.250Z,19.85
2024-01-28T21:17:21.802Z,15.00
2024-01-28T21:20:24.935Z,13.00
2024-01-28T21:23:27.268Z,22.92
2024-01-28T21:26:29.600Z,24.58
2024-01-28T21:29:33.751Z,31.38
2024-01-28T21:32:36.260Z,34.60
2024-01-28T21:35:39.021Z,19.98
2024-01-28T21:38:41.790Z,16.23
2024-01-28T21:41:44.218Z,13.07
2024-01-28T21:44:46.358Z,10.63
2024-01-28T21:47:48.617Z,6.65
2024-01-28T21:50:50.922Z,11.95
2024-01-28T21:53:53.625Z,9.27
2024-01-28T21:56:55.989Z,8.77
2024-01-28T21:59:58.360Z,10.45
2024-01-28T22:03:00.648Z,10.32
2024-01-28T22:06:03.051Z,10.57
2024-01-28T22:09:05.566Z,9.35
2024-01-28T22:12:08.043Z,9.57
2024-01-28T22:15:10.432Z,9.27
2024-01-28T22:18:12.842Z,4.47
2024-01-28T22:21:16.243Z,6.38
2024-01-28T22:24:18.393Z,4.78
2024-01-28T22:27:21.386Z,4.55
2024-01-28T22:30:24.984Z,3.80
2024-01-28T22:33:27.563Z,4.55
2024-01-28T22:36:30.020Z,4.63
2024-01-28T22:39:32.561Z,11.70
2024-01-28T22:42:34.871Z,18.60
2024-01-28T22:45:37.342Z,7.00
2024-01-28T22:48:40.001Z,6.10
2024-01-28T22:51:42.442Z,6.13
2024-01-28T22:54:45.498Z,11.55
2024-01-28T22:57:47.875Z,14.54
2024-01-28T23:00:50.824Z,11.60
2024-01-28T23:03:53.805Z,7.53
2024-01-28T23:06:56.202Z,9.07
2024-01-28T23:09:58.337Z,4.55
2024-01-28T23:13:06.174Z,3.15
2024-01-28T23:16:09.013Z,3.90
2024-01-28T23:19:11.288Z,6.57
2024-01-28T23:22:13.407Z,13.63
2024-01-28T23:25:15.969Z,10.90
2024-01-28T23:28:18.775Z,5.22
2024-01-28T23:31:21.376Z,4.65
2024-01-28T23:34:23.600Z,3.60
2024-01-28T23:37:25.979Z,4.40
2024-01-28T23:40:28.419Z,16.98
2024-01-28T23:43:30.830Z,11.10
2024-01-28T23:46:33.250Z,4.55
2024-01-28T23:49:35.732Z,3.53
2024-01-28T23:52:38.061Z,3.20
2024-01-28T23:55:40.425Z,3.67
2024-01-28T23:58:42.797Z,3.78
